sensor_id;sensor_type;location;lat;lon;timestamp;P1;durP1;ratioP1;P2;durP2;ratioP2
51560;SDS011;37654;51.262;17.058;2023-03-14T00:01:46;11.03;;;4.13;;
51560;SDS011;37654;51.262;17.058;2023-03-14T00:04:11;7.80;;;3.55;;
51560;SDS011;37654;51.262;17.058;2023-03-14T00:06:36;9.52;;;4.00;;
51560;SDS011;37654;51.262;17.058;2023-03-14T00:09:02;7.75;;;3.78;;
51560;SDS011;37654;51.262;17.058;2023-03-14T00:11:27;8.73;;;4.10;;
51560;SDS011;37654;51.262;17.058;2023-03-14T00:13:53;8.90;;;3.85;;
51560;SDS011;37654;51.262;17.058;2023-03-14T00:16:18;12.57;;;4.80;;
51560;SDS011;37654;51.262;17.058;2023-03-14T00:18:44;9.18;;;3.63;;
51560;SDS011;37654;51.262;17.058;2023-03-14T00:21:09;6.63;;;3.13;;
51560;SDS011;37654;51.262;17.058;2023-03-14T00:23:36;11.73;;;4.03;;
51560;SDS011;37654;51.262;17.058;2023-03-14T00:26:02;8.10;;;3.28;;
51560;SDS011;37654;51.262;17.058;2023-03-14T00:28:28;8.70;;;3.33;;
51560;SDS011;37654;51.262;17.058;2023-03-14T00:30:53;7.93;;;3.35;;
51560;SDS011;37654;51.262;17.058;2023-03-14T00:33:19;7.65;;;3.22;;
51560;SDS011;37654;51.262;17.058;2023-03-14T00:35:51;9.80;;;3.88;;
51560;SDS011;37654;51.262;17.058;2023-03-14T00:38:16;9.57;;;3.75;;
51560;SDS011;37654;51.262;17.058;2023-03-14T00:40:42;11.50;;;3.80;;
51560;SDS011;37654;51.262;17.058;2023-03-14T00:43:07;10.57;;;4.23;;
51560;SDS011;37654;51.262;17.058;2023-03-14T00:45:32;12.03;;;4.83;;
51560;SDS011;37654;51.262;17.058;2023-03-14T00:47:57;11.07;;;4.60;;
51560;SDS011;37654;51.262;17.058;2023-03-14T00:50:23;8.87;;;3.80;;
51560;SDS011;37654;51.262;17.058;2023-03-14T00:52:48;6.63;;;3.22;;
51560;SDS011;37654;51.262;17.058;2023-03-14T00:55:14;8.73;;;3.35;;
51560;SDS011;37654;51.262;17.058;2023-03-14T00:57:39;9.70;;;3.22;;
51560;SDS011;37654;51.262;17.058;2023-03-14T01:00:05;10.52;;;4.93;;
51560;SDS011;37654;51.262;17.058;2023-03-14T01:02:32;8.27;;;3.60;;
51560;SDS011;37654;51.262;17.058;2023-03-14T01:04:57;14.40;;;4.65;;
51560;SDS011;37654;51.262;17.058;2023-03-14T01:07:23;12.60;;;4.43;;
51560;SDS011;37654;51.262;17.058;2023-03-14T01:09:51;12.15;;;5.20;;
51560;SDS011;37654;51.262;17.058;2023-03-14T01:12:16;13.85;;;4.07;;
51560;SDS011;37654;51.262;17.058;2023-03-14T01:14:41;13.20;;;5.00;;
51560;SDS011;37654;51.262;17.058;2023-03-14T01:17:08;11.35;;;5.13;;
51560;SDS011;37654;51.262;17.058;2023-03-14T01:19:33;12.43;;;5.13;;
51560;SDS011;37654;51.262;17.058;2023-03-14T01:21:58;12.47;;;5.57;;
51560;SDS011;37654;51.262;17.058;2023-03-14T01:24:25;11.70;;;6.03;;
51560;SDS011;37654;51.262;17.058;2023-03-14T01:26:50;11.40;;;5.68;;
51560;SDS011;37654;51.262;17.058;2023-03-14T01:29:15;19.63;;;8.50;;
51560;SDS011;37654;51.262;17.058;2023-03-14T01:31:40;15.93;;;6.78;;
51560;SDS011;37654;51.262;17.058;2023-03-14T01:34:06;10.30;;;5.50;;
51560;SDS011;37654;51.262;17.058;2023-03-14T01:36:31;10.93;;;5.00;;
51560;SDS011;37654;51.262;17.058;2023-03-14T01:38:56;15.13;;;7.00;;
51560;SDS011;37654;51.262;17.058;2023-03-14T01:41:23;13.55;;;5.32;;
51560;SDS011;37654;51.262;17.058;2023-03-14T01:43:48;7.30;;;3.40;;
51560;SDS011;37654;51.262;17.058;2023-03-14T01:48:44;8.80;;;4.03;;
51560;SDS011;37654;51.262;17.058;2023-03-14T01:51:13;9.65;;;3.90;;
51560;SDS011;37654;51.262;17.058;2023-03-14T01:53:40;9.88;;;3.72;;
51560;SDS011;37654;51.262;17.058;2023-03-14T01:56:07;9.60;;;4.40;;
51560;SDS011;37654;51.262;17.058;2023-03-14T01:58:33;7.47;;;3.72;;
51560;SDS011;37654;51.262;17.058;2023-03-14T02:01:01;10.38;;;4.55;;
51560;SDS011;37654;51.262;17.058;2023-03-14T02:03:27;9.40;;;4.20;;
51560;SDS011;37654;51.262;17.058;2023-03-14T02:05:53;7.97;;;3.80;;
51560;SDS011;37654;51.262;17.058;2023-03-14T02:08:21;12.35;;;5.35;;
51560;SDS011;37654;51.262;17.058;2023-03-14T02:10:47;10.95;;;4.05;;
51560;SDS011;37654;51.262;17.058;2023-03-14T02:13:13;12.35;;;4.05;;
51560;SDS011;37654;51.262;17.058;2023-03-14T02:15:40;10.43;;;4.90;;
51560;SDS011;37654;51.262;17.058;2023-03-14T02:18:05;9.45;;;4.15;;
51560;SDS011;37654;51.262;17.058;2023-03-14T02:20:36;13.00;;;6.25;;
51560;SDS011;37654;51.262;17.058;2023-03-14T02:23:04;9.60;;;4.82;;
51560;SDS011;37654;51.262;17.058;2023-03-14T02:28:09;7.32;;;4.00;;
51560;SDS011;37654;51.262;17.058;2023-03-14T02:30:35;7.78;;;3.75;;
51560;SDS011;37654;51.262;17.058;2023-03-14T02:33:01;9.93;;;4.05;;
51560;SDS011;37654;51.262;17.058;2023-03-14T02:35:29;11.20;;;3.80;;
51560;SDS011;37654;51.262;17.058;2023-03-14T02:40:35;9.13;;;4.82;;
51560;SDS011;37654;51.262;17.058;2023-03-14T02:43:00;11.73;;;5.10;;
51560;SDS011;37654;51.262;17.058;2023-03-14T02:45:30;12.97;;;5.70;;
51560;SDS011;37654;51.262;17.058;2023-03-14T02:47:58;9.95;;;5.07;;
51560;SDS011;37654;51.262;17.058;2023-03-14T02:50:25;15.65;;;5.60;;
51560;SDS011;37654;51.262;17.058;2023-03-14T02:52:51;7.32;;;3.80;;
51560;SDS011;37654;51.262;17.058;2023-03-14T02:55:22;10.30;;;4.57;;
51560;SDS011;37654;51.262;17.058;2023-03-14T02:57:48;7.82;;;3.85;;
51560;SDS011;37654;51.262;17.058;2023-03-14T03:00:13;10.67;;;4.77;;
51560;SDS011;37654;51.262;17.058;2023-03-14T03:02:39;11.07;;;4.40;;
51560;SDS011;37654;51.262;17.058;2023-03-14T03:05:05;12.70;;;4.93;;
51560;SDS011;37654;51.262;17.058;2023-03-14T03:07:30;11.23;;;4.85;;
51560;SDS011;37654;51.262;17.058;2023-03-14T03:09:55;11.17;;;4.33;;
51560;SDS011;37654;51.262;17.058;2023-03-14T03:12:21;11.50;;;4.97;;
51560;SDS011;37654;51.262;17.058;2023-03-14T03:14:46;12.75;;;4.53;;
51560;SDS011;37654;51.262;17.058;2023-03-14T03:17:11;8.25;;;4.03;;
51560;SDS011;37654;51.262;17.058;2023-03-14T03:19:37;11.37;;;4.00;;
51560;SDS011;37654;51.262;17.058;2023-03-14T03:22:02;8.83;;;4.50;;
51560;SDS011;37654;51.262;17.058;2023-03-14T03:24:27;12.32;;;4.57;;
51560;SDS011;37654;51.262;17.058;2023-03-14T03:26:53;6.68;;;3.92;;
51560;SDS011;37654;51.262;17.058;2023-03-14T03:29:18;9.60;;;4.43;;
51560;SDS011;37654;51.262;17.058;2023-03-14T03:31:43;8.63;;;3.92;;
51560;SDS011;37654;51.262;17.058;2023-03-14T03:34:10;7.00;;;3.40;;
51560;SDS011;37654;51.262;17.058;2023-03-14T03:36:36;6.18;;;3.08;;
51560;SDS011;37654;51.262;17.058;2023-03-14T03:39:01;15.13;;;3.17;;
51560;SDS011;37654;51.262;17.058;2023-03-14T03:41:26;7.63;;;2.80;;
51560;SDS011;37654;51.262;17.058;2023-03-14T03:43:52;8.33;;;2.97;;
51560;SDS011;37654;51.262;17.058;2023-03-14T03:46:19;5.28;;;2.50;;
51560;SDS011;37654;51.262;17.058;2023-03-14T03:48:44;9.10;;;3.28;;
51560;SDS011;37654;51.262;17.058;2023-03-14T03:51:13;4.30;;;2.13;;
51560;SDS011;37654;51.262;17.058;2023-03-14T03:53:39;7.40;;;2.83;;
51560;SDS011;37654;51.262;17.058;2023-03-14T03:56:04;5.72;;;2.30;;
51560;SDS011;37654;51.262;17.058;2023-03-14T03:58:29;9.52;;;2.80;;
51560;SDS011;37654;51.262;17.058;2023-03-14T04:00:55;10.03;;;2.80;;
51560;SDS011;37654;51.262;17.058;2023-03-14T04:03:20;7.03;;;2.95;;
51560;SDS011;37654;51.262;17.058;2023-03-14T04:05:45;7.07;;;2.90;;
51560;SDS011;37654;51.262;17.058;2023-03-14T04:08:10;7.17;;;2.83;;
51560;SDS011;37654;51.262;17.058;2023-03-14T04:10:36;6.15;;;2.70;;
51560;SDS011;37654;51.262;17.058;2023-03-14T04:13:01;8.23;;;3.20;;
51560;SDS011;37654;51.262;17.058;2023-03-14T04:15:26;5.88;;;2.70;;
51560;SDS011;37654;51.262;17.058;2023-03-14T04:17:55;6.77;;;3.47;;
51560;SDS011;37654;51.262;17.058;2023-03-14T04:20:21;8.25;;;3.22;;
51560;SDS011;37654;51.262;17.058;2023-03-14T04:22:46;8.70;;;3.60;;
51560;SDS011;37654;51.262;17.058;2023-03-14T04:25:11;7.10;;;3.47;;
51560;SDS011;37654;51.262;17.058;2023-03-14T04:27:36;7.00;;;3.07;;
51560;SDS011;37654;51.262;17.058;2023-03-14T04:30:02;10.93;;;3.37;;
51560;SDS011;37654;51.262;17.058;2023-03-14T04:32:27;9.18;;;3.72;;
51560;SDS011;37654;51.262;17.058;2023-03-14T04:34:52;4.63;;;2.72;;
51560;SDS011;37654;51.262;17.058;2023-03-14T04:37:18;6.53;;;2.90;;
51560;SDS011;37654;51.262;17.058;2023-03-14T04:39:43;7.70;;;2.77;;
51560;SDS011;37654;51.262;17.058;2023-03-14T04:42:08;6.63;;;3.00;;
51560;SDS011;37654;51.262;17.058;2023-03-14T04:44:34;5.93;;;2.83;;
51560;SDS011;37654;51.262;17.058;2023-03-14T04:46:59;14.25;;;3.38;;
51560;SDS011;37654;51.262;17.058;2023-03-14T04:49:24;5.00;;;2.70;;
51560;SDS011;37654;51.262;17.058;2023-03-14T04:51:49;10.73;;;3.20;;
51560;SDS011;37654;51.262;17.058;2023-03-14T04:54:18;17.15;;;3.30;;
51560;SDS011;37654;51.262;17.058;2023-03-14T04:56:43;7.50;;;3.03;;
51560;SDS011;37654;51.262;17.058;2023-03-14T04:59:08;6.07;;;3.93;;
51560;SDS011;37654;51.262;17.058;2023-03-14T05:01:34;7.50;;;2.75;;
51560;SDS011;37654;51.262;17.058;2023-03-14T05:03:59;5.05;;;2.38;;
51560;SDS011;37654;51.262;17.058;2023-03-14T05:06:25;7.20;;;2.67;;
51560;SDS011;37654;51.262;17.058;2023-03-14T05:08:52;5.82;;;2.88;;
51560;SDS011;37654;51.262;17.058;2023-03-14T05:11:17;7.65;;;2.70;;
51560;SDS011;37654;51.262;17.058;2023-03-14T05:13:43;6.07;;;2.92;;
51560;SDS011;37654;51.262;17.058;2023-03-14T05:16:10;7.63;;;3.40;;
51560;SDS011;37654;51.262;17.058;2023-03-14T05:18:36;9.40;;;3.15;;
51560;SDS011;37654;51.262;17.058;2023-03-14T05:21:01;10.63;;;3.55;;
51560;SDS011;37654;51.262;17.058;2023-03-14T05:23:27;8.20;;;3.22;;
51560;SDS011;37654;51.262;17.058;2023-03-14T05:25:52;8.05;;;3.50;;
51560;SDS011;37654;51.262;17.058;2023-03-14T05:28:18;11.38;;;4.60;;
51560;SDS011;37654;51.262;17.058;2023-03-14T05:30:43;12.23;;;3.40;;
51560;SDS011;37654;51.262;17.058;2023-03-14T05:33:09;7.47;;;3.20;;
51560;SDS011;37654;51.262;17.058;2023-03-14T05:35:34;16.23;;;3.73;;
51560;SDS011;37654;51.262;17.058;2023-03-14T05:37:59;7.70;;;3.03;;
51560;SDS011;37654;51.262;17.058;2023-03-14T05:40:25;7.90;;;3.42;;
51560;SDS011;37654;51.262;17.058;2023-03-14T05:42:50;7.78;;;3.25;;
51560;SDS011;37654;51.262;17.058;2023-03-14T05:45:15;11.98;;;4.18;;
51560;SDS011;37654;51.262;17.058;2023-03-14T05:47:40;12.73;;;3.55;;
51560;SDS011;37654;51.262;17.058;2023-03-14T05:50:06;7.57;;;3.30;;
51560;SDS011;37654;51.262;17.058;2023-03-14T05:52:31;7.93;;;3.92;;
51560;SDS011;37654;51.262;17.058;2023-03-14T05:54:57;11.50;;;4.40;;
51560;SDS011;37654;51.262;17.058;2023-03-14T05:57:22;8.00;;;4.03;;
51560;SDS011;37654;51.262;17.058;2023-03-14T05:59:47;8.40;;;4.38;;
51560;SDS011;37654;51.262;17.058;2023-03-14T06:02:13;10.98;;;4.30;;
51560;SDS011;37654;51.262;17.058;2023-03-14T06:04:38;10.25;;;4.45;;
51560;SDS011;37654;51.262;17.058;2023-03-14T06:07:03;10.07;;;4.30;;
51560;SDS011;37654;51.262;17.058;2023-03-14T06:09:29;10.03;;;3.97;;
51560;SDS011;37654;51.262;17.058;2023-03-14T06:11:54;6.57;;;3.70;;
51560;SDS011;37654;51.262;17.058;2023-03-14T06:14:19;9.73;;;3.72;;
51560;SDS011;37654;51.262;17.058;2023-03-14T06:16:44;8.30;;;2.95;;
51560;SDS011;37654;51.262;17.058;2023-03-14T06:19:10;11.57;;;3.60;;
51560;SDS011;37654;51.262;17.058;2023-03-14T06:21:35;9.80;;;3.50;;
51560;SDS011;37654;51.262;17.058;2023-03-14T06:24:00;6.55;;;3.33;;
51560;SDS011;37654;51.262;17.058;2023-03-14T06:26:26;6.38;;;3.30;;
51560;SDS011;37654;51.262;17.058;2023-03-14T06:28:51;7.88;;;3.22;;
51560;SDS011;37654;51.262;17.058;2023-03-14T06:31:18;7.68;;;3.58;;
51560;SDS011;37654;51.262;17.058;2023-03-14T06:33:43;11.55;;;4.20;;
51560;SDS011;37654;51.262;17.058;2023-03-14T06:36:08;11.48;;;3.70;;
51560;SDS011;37654;51.262;17.058;2023-03-14T06:38:34;7.95;;;4.00;;
51560;SDS011;37654;51.262;17.058;2023-03-14T06:41:05;10.40;;;3.50;;
51560;SDS011;37654;51.262;17.058;2023-03-14T06:43:30;7.28;;;3.17;;
51560;SDS011;37654;51.262;17.058;2023-03-14T06:45:57;10.32;;;3.72;;
51560;SDS011;37654;51.262;17.058;2023-03-14T06:48:23;12.90;;;4.25;;
51560;SDS011;37654;51.262;17.058;2023-03-14T06:50:48;7.77;;;3.60;;
51560;SDS011;37654;51.262;17.058;2023-03-14T06:53:15;9.77;;;3.70;;
51560;SDS011;37654;51.262;17.058;2023-03-14T06:55:41;14.20;;;3.93;;
51560;SDS011;37654;51.262;17.058;2023-03-14T06:58:08;13.48;;;4.55;;
51560;SDS011;37654;51.262;17.058;2023-03-14T07:00:33;7.60;;;3.70;;
51560;SDS011;37654;51.262;17.058;2023-03-14T07:02:59;12.20;;;3.72;;
51560;SDS011;37654;51.262;17.058;2023-03-14T07:05:24;7.03;;;3.55;;
51560;SDS011;37654;51.262;17.058;2023-03-14T07:07:50;10.98;;;4.15;;
51560;SDS011;37654;51.262;17.058;2023-03-14T07:10:15;12.52;;;4.00;;
51560;SDS011;37654;51.262;17.058;2023-03-14T07:12:41;10.18;;;4.35;;
51560;SDS011;37654;51.262;17.058;2023-03-14T07:15:06;7.33;;;3.97;;
51560;SDS011;37654;51.262;17.058;2023-03-14T07:17:31;8.32;;;3.65;;
51560;SDS011;37654;51.262;17.058;2023-03-14T07:19:57;9.07;;;4.57;;
51560;SDS011;37654;51.262;17.058;2023-03-14T07:22:22;9.73;;;4.68;;
51560;SDS011;37654;51.262;17.058;2023-03-14T07:24:47;7.82;;;4.07;;
51560;SDS011;37654;51.262;17.058;2023-03-14T07:27:12;12.07;;;5.00;;
51560;SDS011;37654;51.262;17.058;2023-03-14T07:29:38;11.73;;;5.23;;
51560;SDS011;37654;51.262;17.058;2023-03-14T07:32:03;15.70;;;5.27;;
51560;SDS011;37654;51.262;17.058;2023-03-14T07:34:28;10.02;;;4.55;;
51560;SDS011;37654;51.262;17.058;2023-03-14T07:36:54;11.50;;;5.70;;
51560;SDS011;37654;51.262;17.058;2023-03-14T07:39:19;9.77;;;5.20;;
51560;SDS011;37654;51.262;17.058;2023-03-14T07:41:44;16.33;;;5.55;;
51560;SDS011;37654;51.262;17.058;2023-03-14T07:44:10;14.50;;;5.55;;
51560;SDS011;37654;51.262;17.058;2023-03-14T07:46:35;13.47;;;5.13;;
51560;SDS011;37654;51.262;17.058;2023-03-14T07:49:00;9.77;;;4.77;;
51560;SDS011;37654;51.262;17.058;2023-03-14T07:51:25;10.55;;;5.15;;
51560;SDS011;37654;51.262;17.058;2023-03-14T07:53:51;12.00;;;4.63;;
51560;SDS011;37654;51.262;17.058;2023-03-14T07:56:16;11.32;;;5.13;;
51560;SDS011;37654;51.262;17.058;2023-03-14T07:58:41;11.70;;;4.50;;
51560;SDS011;37654;51.262;17.058;2023-03-14T08:01:07;7.93;;;4.15;;
51560;SDS011;37654;51.262;17.058;2023-03-14T08:03:32;11.73;;;4.32;;
51560;SDS011;37654;51.262;17.058;2023-03-14T08:05:58;10.68;;;4.10;;
51560;SDS011;37654;51.262;17.058;2023-03-14T08:08:23;9.70;;;4.57;;
51560;SDS011;37654;51.262;17.058;2023-03-14T08:10:48;8.83;;;3.83;;
51560;SDS011;37654;51.262;17.058;2023-03-14T08:13:14;13.00;;;5.70;;
51560;SDS011;37654;51.262;17.058;2023-03-14T08:15:39;16.67;;;5.45;;
51560;SDS011;37654;51.262;17.058;2023-03-14T08:18:05;9.77;;;4.65;;
51560;SDS011;37654;51.262;17.058;2023-03-14T08:20:30;10.95;;;4.97;;
51560;SDS011;37654;51.262;17.058;2023-03-14T08:22:56;11.88;;;5.13;;
51560;SDS011;37654;51.262;17.058;2023-03-14T08:25:22;10.32;;;4.93;;
51560;SDS011;37654;51.262;17.058;2023-03-14T08:27:48;16.25;;;6.75;;
51560;SDS011;37654;51.262;17.058;2023-03-14T08:30:14;10.32;;;4.95;;
51560;SDS011;37654;51.262;17.058;2023-03-14T08:32:39;18.33;;;5.28;;
51560;SDS011;37654;51.262;17.058;2023-03-14T08:35:06;9.32;;;4.88;;
51560;SDS011;37654;51.262;17.058;2023-03-14T08:37:32;14.48;;;6.43;;
51560;SDS011;37654;51.262;17.058;2023-03-14T08:39:57;22.08;;;6.40;;
51560;SDS011;37654;51.262;17.058;2023-03-14T08:42:23;12.07;;;4.60;;
51560;SDS011;37654;51.262;17.058;2023-03-14T08:44:48;11.73;;;4.37;;
51560;SDS011;37654;51.262;17.058;2023-03-14T08:47:13;12.77;;;5.00;;
51560;SDS011;37654;51.262;17.058;2023-03-14T08:49:39;9.75;;;3.90;;
51560;SDS011;37654;51.262;17.058;2023-03-14T08:52:04;12.57;;;4.70;;
51560;SDS011;37654;51.262;17.058;2023-03-14T08:54:30;11.63;;;4.20;;
51560;SDS011;37654;51.262;17.058;2023-03-14T08:56:55;9.88;;;4.13;;
51560;SDS011;37654;51.262;17.058;2023-03-14T08:59:21;9.05;;;4.22;;
51560;SDS011;37654;51.262;17.058;2023-03-14T09:01:46;10.55;;;4.43;;
51560;SDS011;37654;51.262;17.058;2023-03-14T09:04:11;9.90;;;3.73;;
51560;SDS011;37654;51.262;17.058;2023-03-14T09:06:38;9.10;;;4.38;;
51560;SDS011;37654;51.262;17.058;2023-03-14T09:09:06;17.08;;;5.00;;
51560;SDS011;37654;51.262;17.058;2023-03-14T09:11:31;11.10;;;4.35;;
51560;SDS011;37654;51.262;17.058;2023-03-14T09:13:57;17.70;;;5.03;;
51560;SDS011;37654;51.262;17.058;2023-03-14T09:16:22;11.35;;;5.20;;
51560;SDS011;37654;51.262;17.058;2023-03-14T09:18:49;11.43;;;4.10;;
51560;SDS011;37654;51.262;17.058;2023-03-14T09:21:14;14.30;;;4.93;;
51560;SDS011;37654;51.262;17.058;2023-03-14T09:23:40;14.35;;;4.78;;
51560;SDS011;37654;51.262;17.058;2023-03-14T09:26:06;11.45;;;5.28;;
51560;SDS011;37654;51.262;17.058;2023-03-14T09:28:31;8.97;;;3.87;;
51560;SDS011;37654;51.262;17.058;2023-03-14T09:30:57;11.77;;;3.90;;
51560;SDS011;37654;51.262;17.058;2023-03-14T09:33:23;9.18;;;3.08;;
51560;SDS011;37654;51.262;17.058;2023-03-14T09:35:48;8.48;;;3.67;;
51560;SDS011;37654;51.262;17.058;2023-03-14T09:38:15;8.73;;;3.78;;
51560;SDS011;37654;51.262;17.058;2023-03-14T09:40:41;11.40;;;4.30;;
51560;SDS011;37654;51.262;17.058;2023-03-14T09:43:09;9.90;;;3.67;;
51560;SDS011;37654;51.262;17.058;2023-03-14T09:45:35;9.20;;;3.75;;
51560;SDS011;37654;51.262;17.058;2023-03-14T09:48:02;8.93;;;4.07;;
51560;SDS011;37654;51.262;17.058;2023-03-14T09:50:33;8.70;;;3.72;;
51560;SDS011;37654;51.262;17.058;2023-03-14T09:53:02;8.73;;;4.40;;
51560;SDS011;37654;51.262;17.058;2023-03-14T09:55:29;8.50;;;3.83;;
51560;SDS011;37654;51.262;17.058;2023-03-14T09:57:56;9.73;;;3.97;;
51560;SDS011;37654;51.262;17.058;2023-03-14T10:00:23;10.05;;;4.53;;
51560;SDS011;37654;51.262;17.058;2023-03-14T10:02:53;7.15;;;3.58;;
51560;SDS011;37654;51.262;17.058;2023-03-14T10:05:21;9.95;;;3.63;;
51560;SDS011;37654;51.262;17.058;2023-03-14T10:07:46;6.45;;;3.20;;
51560;SDS011;37654;51.262;17.058;2023-03-14T10:10:13;10.00;;;3.50;;
51560;SDS011;37654;51.262;17.058;2023-03-14T10:12:40;9.77;;;3.45;;
51560;SDS011;37654;51.262;17.058;2023-03-14T10:17:40;9.00;;;4.53;;
51560;SDS011;37654;51.262;17.058;2023-03-14T10:20:05;7.53;;;3.75;;
51560;SDS011;37654;51.262;17.058;2023-03-14T10:22:35;10.43;;;4.00;;
51560;SDS011;37654;51.262;17.058;2023-03-14T10:25:02;7.47;;;3.38;;
51560;SDS011;37654;51.262;17.058;2023-03-14T10:27:31;11.40;;;4.57;;
51560;SDS011;37654;51.262;17.058;2023-03-14T10:30:03;10.02;;;4.38;;
51560;SDS011;37654;51.262;17.058;2023-03-14T10:32:36;10.40;;;4.03;;
51560;SDS011;37654;51.262;17.058;2023-03-14T10:35:06;13.80;;;4.22;;
51560;SDS011;37654;51.262;17.058;2023-03-14T10:37:32;6.53;;;3.28;;
51560;SDS011;37654;51.262;17.058;2023-03-14T10:39:58;8.55;;;3.72;;
51560;SDS011;37654;51.262;17.058;2023-03-14T10:42:30;14.88;;;4.53;;
51560;SDS011;37654;51.262;17.058;2023-03-14T10:45:00;7.65;;;3.10;;
51560;SDS011;37654;51.262;17.058;2023-03-14T10:47:26;13.45;;;4.82;;
51560;SDS011;37654;51.262;17.058;2023-03-14T10:49:53;14.10;;;4.57;;
51560;SDS011;37654;51.262;17.058;2023-03-14T10:52:20;11.18;;;4.40;;
51560;SDS011;37654;51.262;17.058;2023-03-14T10:54:59;9.77;;;3.88;;
51560;SDS011;37654;51.262;17.058;2023-03-14T10:57:25;8.77;;;3.58;;
51560;SDS011;37654;51.262;17.058;2023-03-14T10:59:51;9.68;;;3.80;;
51560;SDS011;37654;51.262;17.058;2023-03-14T11:02:27;7.65;;;3.55;;
51560;SDS011;37654;51.262;17.058;2023-03-14T11:07:39;5.30;;;3.13;;
51560;SDS011;37654;51.262;17.058;2023-03-14T11:12:47;16.63;;;3.88;;
51560;SDS011;37654;51.262;17.058;2023-03-14T11:17:56;7.28;;;3.65;;
51560;SDS011;37654;51.262;17.058;2023-03-14T11:21:08;10.20;;;3.10;;
51560;SDS011;37654;51.262;17.058;2023-03-14T11:23:14;7.47;;;2.58;;
51560;SDS011;37654;51.262;17.058;2023-03-14T11:28:24;6.05;;;3.17;;
51560;SDS011;37654;51.262;17.058;2023-03-14T11:30:54;7.90;;;3.00;;
51560;SDS011;37654;51.262;17.058;2023-03-14T11:40:56;7.53;;;2.83;;
51560;SDS011;37654;51.262;17.058;2023-03-14T11:43:40;5.40;;;2.88;;
51560;SDS011;37654;51.262;17.058;2023-03-14T11:48:41;6.83;;;2.70;;
51560;SDS011;37654;51.262;17.058;2023-03-14T11:51:25;6.47;;;3.15;;
51560;SDS011;37654;51.262;17.058;2023-03-14T11:53:57;6.50;;;2.60;;
51560;SDS011;37654;51.262;17.058;2023-03-14T11:56:34;5.32;;;2.30;;
51560;SDS011;37654;51.262;17.058;2023-03-14T11:59:05;5.53;;;2.65;;
51560;SDS011;37654;51.262;17.058;2023-03-14T12:01:36;7.63;;;2.47;;
51560;SDS011;37654;51.262;17.058;2023-03-14T12:04:09;9.95;;;2.38;;
51560;SDS011;37654;51.262;17.058;2023-03-14T12:09:16;7.95;;;2.95;;
51560;SDS011;37654;51.262;17.058;2023-03-14T12:17:38;4.60;;;2.33;;
51560;SDS011;37654;51.262;17.058;2023-03-14T12:19:38;5.72;;;2.35;;
51560;SDS011;37654;51.262;17.058;2023-03-14T12:22:12;8.05;;;2.58;;
51560;SDS011;37654;51.262;17.058;2023-03-14T12:24:40;6.30;;;2.78;;
51560;SDS011;37654;51.262;17.058;2023-03-14T12:27:09;7.75;;;2.53;;
51560;SDS011;37654;51.262;17.058;2023-03-14T12:32:24;8.40;;;2.55;;
51560;SDS011;37654;51.262;17.058;2023-03-14T12:34:50;5.18;;;2.20;;
51560;SDS011;37654;51.262;17.058;2023-03-14T12:37:36;7.65;;;2.75;;
51560;SDS011;37654;51.262;17.058;2023-03-14T12:40:13;6.38;;;2.45;;
51560;SDS011;37654;51.262;17.058;2023-03-14T12:45:21;4.55;;;2.50;;
51560;SDS011;37654;51.262;17.058;2023-03-14T12:48:01;7.40;;;1.90;;
51560;SDS011;37654;51.262;17.058;2023-03-14T12:50:35;7.97;;;2.95;;
51560;SDS011;37654;51.262;17.058;2023-03-14T12:53:06;5.65;;;2.80;;
51560;SDS011;37654;51.262;17.058;2023-03-14T12:58:08;8.07;;;3.37;;
51560;SDS011;37654;51.262;17.058;2023-03-14T13:00:40;10.57;;;3.10;;
51560;SDS011;37654;51.262;17.058;2023-03-14T13:11:01;9.60;;;4.15;;
51560;SDS011;37654;51.262;17.058;2023-03-14T13:13:26;12.85;;;4.03;;
51560;SDS011;37654;51.262;17.058;2023-03-14T13:15:56;12.68;;;4.80;;
51560;SDS011;37654;51.262;17.058;2023-03-14T13:19:02;11.90;;;4.45;;
51560;SDS011;37654;51.262;17.058;2023-03-14T13:21:21;10.10;;;4.45;;
51560;SDS011;37654;51.262;17.058;2023-03-14T13:31:48;8.82;;;4.07;;
51560;SDS011;37654;51.262;17.058;2023-03-14T13:34:14;11.52;;;3.80;;
51560;SDS011;37654;51.262;17.058;2023-03-14T13:36:40;8.65;;;4.20;;
51560;SDS011;37654;51.262;17.058;2023-03-14T13:39:09;8.43;;;3.47;;
51560;SDS011;37654;51.262;17.058;2023-03-14T13:41:38;12.65;;;4.30;;
51560;SDS011;37654;51.262;17.058;2023-03-14T13:44:05;13.50;;;4.35;;
51560;SDS011;37654;51.262;17.058;2023-03-14T13:46:33;5.88;;;3.38;;
51560;SDS011;37654;51.262;17.058;2023-03-14T13:49:05;11.80;;;3.78;;
51560;SDS011;37654;51.262;17.058;2023-03-14T13:51:32;7.63;;;3.55;;
51560;SDS011;37654;51.262;17.058;2023-03-14T13:54:02;8.88;;;3.72;;
51560;SDS011;37654;51.262;17.058;2023-03-14T13:56:31;11.20;;;3.97;;
51560;SDS011;37654;51.262;17.058;2023-03-14T13:58:57;11.70;;;4.13;;
51560;SDS011;37654;51.262;17.058;2023-03-14T14:01:30;10.10;;;4.28;;
51560;SDS011;37654;51.262;17.058;2023-03-14T14:09:12;16.55;;;3.58;;
51560;SDS011;37654;51.262;17.058;2023-03-14T14:11:41;7.18;;;3.33;;
51560;SDS011;37654;51.262;17.058;2023-03-14T14:14:09;8.68;;;3.22;;
51560;SDS011;37654;51.262;17.058;2023-03-14T14:16:36;5.60;;;2.88;;
51560;SDS011;37654;51.262;17.058;2023-03-14T14:19:01;11.02;;;3.97;;
51560;SDS011;37654;51.262;17.058;2023-03-14T14:21:27;6.28;;;3.30;;
51560;SDS011;37654;51.262;17.058;2023-03-14T14:23:52;8.15;;;3.03;;
51560;SDS011;37654;51.262;17.058;2023-03-14T14:26:18;11.57;;;3.33;;
51560;SDS011;37654;51.262;17.058;2023-03-14T14:28:45;15.13;;;3.40;;
51560;SDS011;37654;51.262;17.058;2023-03-14T14:33:46;6.05;;;2.88;;
51560;SDS011;37654;51.262;17.058;2023-03-14T14:36:19;8.30;;;3.50;;
51560;SDS011;37654;51.262;17.058;2023-03-14T14:38:49;11.88;;;4.20;;
51560;SDS011;37654;51.262;17.058;2023-03-14T14:41:15;11.30;;;4.47;;
51560;SDS011;37654;51.262;17.058;2023-03-14T14:43:41;10.02;;;3.78;;
51560;SDS011;37654;51.262;17.058;2023-03-14T14:46:07;9.88;;;4.18;;
51560;SDS011;37654;51.262;17.058;2023-03-14T14:48:35;9.27;;;4.10;;
51560;SDS011;37654;51.262;17.058;2023-03-14T14:51:02;10.82;;;3.47;;
51560;SDS011;37654;51.262;17.058;2023-03-14T14:56:08;10.68;;;3.58;;
51560;SDS011;37654;51.262;17.058;2023-03-14T14:58:40;9.95;;;3.92;;
51560;SDS011;37654;51.262;17.058;2023-03-14T15:01:11;16.15;;;4.47;;
51560;SDS011;37654;51.262;17.058;2023-03-14T15:03:37;6.82;;;3.55;;
51560;SDS011;37654;51.262;17.058;2023-03-14T15:06:02;9.93;;;3.90;;
51560;SDS011;37654;51.262;17.058;2023-03-14T15:08:28;9.60;;;4.60;;
51560;SDS011;37654;51.262;17.058;2023-03-14T15:10:54;7.97;;;3.90;;
51560;SDS011;37654;51.262;17.058;2023-03-14T15:13:19;13.50;;;4.50;;
51560;SDS011;37654;51.262;17.058;2023-03-14T15:15:44;7.78;;;3.83;;
51560;SDS011;37654;51.262;17.058;2023-03-14T15:18:15;9.18;;;4.13;;
51560;SDS011;37654;51.262;17.058;2023-03-14T15:20:41;7.40;;;3.67;;
51560;SDS011;37654;51.262;17.058;2023-03-14T15:23:11;7.82;;;4.15;;
51560;SDS011;37654;51.262;17.058;2023-03-14T15:25:36;9.52;;;4.85;;
51560;SDS011;37654;51.262;17.058;2023-03-14T15:28:08;10.55;;;3.92;;
51560;SDS011;37654;51.262;17.058;2023-03-14T15:30:35;9.63;;;4.15;;
51560;SDS011;37654;51.262;17.058;2023-03-14T15:33:00;10.57;;;4.70;;
51560;SDS011;37654;51.262;17.058;2023-03-14T15:35:25;9.50;;;4.80;;
51560;SDS011;37654;51.262;17.058;2023-03-14T15:37:51;10.35;;;4.25;;
51560;SDS011;37654;51.262;17.058;2023-03-14T15:40:16;9.30;;;4.67;;